Beechville, Illinois
Current Conditions -  °F | °C
As of 1:12 AM on Saturday 20 Dec 2014 (Local Time) from KSET Reporting Station
Haze Haze  
Wind Chill: 30°   Ceiling: 3000
Heat Index: 34°   Visibility: 6mi
Dew Point: 31°   Wind: 5mph
Humidity: 89%   Direction: 90°E
Pressure: 30.27"   Gusts: NA
Location:  39.0922°N, 90.6653°W
Report Text: KSET 200712Z AUTO 09004KT 6SM BR BKN030 OVC055 01/M01 A3027 RMK AO2 T00111006
Loading
Personal Weather Stations






























Interactive Weather Map New forecast layout! Learn more

10-Day Weather Forecast

Advertisements
Track Severe Weather on mobile